createdAt,value
2023-03-25T00:00:15.962Z,99.50
2023-03-25T00:02:45.290Z,99.70
2023-03-25T00:05:16.874Z,99.80
2023-03-25T00:07:45.209Z,99.40
2023-03-25T00:10:14.008Z,99.00
2023-03-25T00:12:42.594Z,99.40
2023-03-25T00:15:11.492Z,99.30
2023-03-25T00:17:38.801Z,98.90
2023-03-25T00:20:09.582Z,99.00
2023-03-25T00:22:41.004Z,98.40
2023-03-25T00:25:10.584Z,98.50
2023-03-25T00:27:38.364Z,98.30
2023-03-25T00:30:05.676Z,98.40
2023-03-25T00:32:32.578Z,98.30
2023-03-25T00:34:59.825Z,97.80
2023-03-25T00:37:27.236Z,97.80
2023-03-25T00:39:54.113Z,97.70
2023-03-25T00:42:26.353Z,97.90
2023-03-25T00:44:54.050Z,98.40
2023-03-25T00:47:22.199Z,98.40
2023-03-25T00:49:50.051Z,98.00
2023-03-25T00:52:18.306Z,97.50
2023-03-25T00:54:46.046Z,97.90
2023-03-25T00:57:12.926Z,98.30
2023-03-25T00:59:39.813Z,97.90
2023-03-25T01:02:07.168Z,98.10
2023-03-25T01:04:39.468Z,97.70
2023-03-25T01:07:08.305Z,98.20
2023-03-25T01:09:35.052Z,98.40
2023-03-25T01:12:01.982Z,97.90
2023-03-25T01:14:29.197Z,98.00
2023-03-25T01:16:58.666Z,97.70
2023-03-25T01:19:25.540Z,98.00
2023-03-25T01:21:52.504Z,97.90
2023-03-25T01:24:19.610Z,97.60
2023-03-25T01:26:46.825Z,97.70
2023-03-25T01:29:15.506Z,97.70
2023-03-25T01:31:48.348Z,97.80
2023-03-25T01:34:16.106Z,98.10
2023-03-25T01:36:46.382Z,98.30
2023-03-25T01:39:16.705Z,98.60
2023-03-25T01:41:50.207Z,98.70
2023-03-25T01:44:21.056Z,98.70
2023-03-25T01:46:49.389Z,99.00
2023-03-25T01:49:23.753Z,99.30
2023-03-25T01:51:55.888Z,99.70
2023-03-25T01:54:23.053Z,99.90
2023-03-25T01:56:52.117Z,99.90
2023-03-25T01:59:24.860Z,99.90
2023-03-25T02:01:53.725Z,99.90
2023-03-25T02:04:34.880Z,99.90
2023-03-25T02:07:02.042Z,99.90
2023-03-25T02:09:29.090Z,99.90
2023-03-25T02:11:55.937Z,99.90
2023-03-25T02:14:26.965Z,99.90
2023-03-25T02:17:12.330Z,99.90
2023-03-25T02:20:32.778Z,99.90
2023-03-25T02:23:21.900Z,99.90
2023-03-25T02:26:33.327Z,99.90
2023-03-25T02:29:11.520Z,99.90
2023-03-25T02:31:55.659Z,99.90
2023-03-25T02:35:00.153Z,99.90
2023-03-25T02:37:49.141Z,99.90
2023-03-25T02:40:38.761Z,99.90
2023-03-25T02:43:12.686Z,99.90
2023-03-25T02:45:51.319Z,99.90
2023-03-25T02:48:36.091Z,99.90
2023-03-25T02:51:10.857Z,99.90
2023-03-25T02:53:39.798Z,99.90
2023-03-25T02:56:12.886Z,99.90
2023-03-25T02:58:41.910Z,99.90
2023-03-25T03:01:10.317Z,99.90
2023-03-25T03:03:37.341Z,99.90
2023-03-25T03:06:06.647Z,99.90
2023-03-25T03:08:48.804Z,99.90
2023-03-25T03:11:24.902Z,99.90
2023-03-25T03:14:22.198Z,99.90
2023-03-25T03:17:18.500Z,99.90
2023-03-25T03:19:54.811Z,99.90
2023-03-25T03:22:34.363Z,99.90
2023-03-25T03:25:07.486Z,99.90
2023-03-25T03:27:41.858Z,99.90
2023-03-25T03:30:32.592Z,99.90
2023-03-25T03:33:15.548Z,99.90
2023-03-25T03:35:52.762Z,99.90
2023-03-25T03:38:22.627Z,99.90
2023-03-25T03:40:58.102Z,99.90
2023-03-25T03:43:33.686Z,99.90
2023-03-25T03:46:05.303Z,99.90
2023-03-25T03:48:40.503Z,99.90
2023-03-25T03:51:31.134Z,99.90
2023-03-25T03:54:05.361Z,99.90
2023-03-25T03:56:41.262Z,99.90
2023-03-25T03:59:13.765Z,99.90
2023-03-25T04:01:54.131Z,99.90
2023-03-25T04:04:24.003Z,99.90
2023-03-25T04:07:07.413Z,99.90
2023-03-25T04:09:43.769Z,99.90
2023-03-25T04:12:20.021Z,99.90
2023-03-25T04:14:47.342Z,99.90
2023-03-25T04:17:14.157Z,99.90
2023-03-25T04:19:40.944Z,99.90
2023-03-25T04:22:08.879Z,99.90
2023-03-25T04:24:37.755Z,99.90
2023-03-25T04:27:04.991Z,99.90
2023-03-25T04:29:32.244Z,99.90
2023-03-25T04:32:02.813Z,99.90
2023-03-25T04:34:29.678Z,99.90
2023-03-25T04:36:58.518Z,99.90
2023-03-25T04:39:25.675Z,99.90
2023-03-25T04:41:56.797Z,99.90
2023-03-25T04:44:25.957Z,99.90
2023-03-25T04:46:52.910Z,99.90
2023-03-25T04:49:21.724Z,99.90
2023-03-25T04:51:51.590Z,99.90
2023-03-25T04:54:19.558Z,99.90
2023-03-25T04:56:48.017Z,99.90
2023-03-25T04:59:15.961Z,99.90
2023-03-25T05:01:46.166Z,99.90
2023-03-25T05:04:17.660Z,99.90
2023-03-25T05:06:50.638Z,99.90
2023-03-25T05:09:19.916Z,99.90
2023-03-25T05:11:47.028Z,99.90
2023-03-25T05:14:16.412Z,99.90
2023-03-25T05:16:44.180Z,99.60
2023-03-25T05:19:11.199Z,99.10
2023-03-25T05:21:39.666Z,99.10
2023-03-25T05:24:10.782Z,98.70
2023-03-25T05:26:39.915Z,99.10
2023-03-25T05:29:09.422Z,98.80
2023-03-25T05:31:36.637Z,98.40
2023-03-25T05:34:06.703Z,98.60
2023-03-25T05:36:33.680Z,98.80
2023-03-25T05:39:01.233Z,98.80
2023-03-25T05:41:38.855Z,99.20
2023-03-25T05:44:14.749Z,98.70
2023-03-25T05:46:41.555Z,98.60
2023-03-25T05:49:08.343Z,98.50
2023-03-25T05:51:38.382Z,98.40
2023-03-25T05:54:11.275Z,98.60
2023-03-25T05:56:38.561Z,98.10
2023-03-25T05:59:05.506Z,98.20
2023-03-25T06:01:34.308Z,98.20
2023-03-25T06:04:03.177Z,97.90
2023-03-25T06:06:32.087Z,98.70
2023-03-25T06:08:59.663Z,98.10
2023-03-25T06:11:26.509Z,98.10
2023-03-25T06:13:53.293Z,98.10
2023-03-25T06:16:27.488Z,98.00
2023-03-25T06:18:59.697Z,98.10
2023-03-25T06:21:34.790Z,98.20
2023-03-25T06:24:02.160Z,97.80
2023-03-25T06:26:29.446Z,97.60
2023-03-25T06:28:56.278Z,97.10
2023-03-25T06:31:28.465Z,97.10
2023-03-25T06:33:56.764Z,96.80
2023-03-25T06:36:25.369Z,97.30
2023-03-25T06:38:53.105Z,96.20
2023-03-25T06:41:20.894Z,96.60
2023-03-25T06:43:48.453Z,96.70
2023-03-25T06:46:15.873Z,97.50
2023-03-25T06:48:42.754Z,96.00
2023-03-25T06:51:09.692Z,95.80
2023-03-25T06:53:36.615Z,96.20
2023-03-25T06:56:03.576Z,95.40
2023-03-25T06:58:34.922Z,95.20
2023-03-25T07:01:07.000Z,95.20
2023-03-25T07:03:36.358Z,94.80
2023-03-25T07:06:04.546Z,95.60
2023-03-25T07:08:31.726Z,94.40
2023-03-25T07:11:03.371Z,94.20
2023-03-25T07:13:31.334Z,94.40
2023-03-25T07:15:58.661Z,94.70
2023-03-25T07:18:25.858Z,94.90
2023-03-25T07:20:53.358Z,95.90
2023-03-25T07:23:20.136Z,96.00
2023-03-25T07:25:48.765Z,96.60
2023-03-25T07:28:15.913Z,96.70
2023-03-25T07:30:42.667Z,97.00
2023-03-25T07:33:09.622Z,97.60
2023-03-25T07:35:36.645Z,98.50
2023-03-25T07:38:04.051Z,99.00
2023-03-25T07:40:31.054Z,99.00
2023-03-25T07:42:57.932Z,99.50
2023-03-25T07:45:25.475Z,99.80
2023-03-25T07:47:53.348Z,99.20
2023-03-25T07:50:23.798Z,98.70
2023-03-25T07:52:52.083Z,98.60
2023-03-25T07:55:18.924Z,98.30
2023-03-25T07:57:45.928Z,99.20
2023-03-25T08:00:13.499Z,99.00
2023-03-25T08:02:41.768Z,99.50
2023-03-25T08:05:08.895Z,99.60
2023-03-25T08:07:35.802Z,99.40
2023-03-25T08:10:03.439Z,99.90
2023-03-25T08:12:30.200Z,99.90
2023-03-25T08:14:57.184Z,99.90
2023-03-25T08:17:24.117Z,99.90
2023-03-25T08:19:51.141Z,99.90
2023-03-25T08:22:18.108Z,99.90
2023-03-25T08:24:44.893Z,99.90
2023-03-25T08:27:15.572Z,99.90
2023-03-25T08:29:44.849Z,99.90
2023-03-25T08:32:11.728Z,99.90
2023-03-25T08:34:40.075Z,99.90
2023-03-25T08:37:08.093Z,99.90
2023-03-25T08:39:40.205Z,99.90
2023-03-25T08:42:10.399Z,99.90
2023-03-25T08:44:37.390Z,99.90
2023-03-25T08:47:04.471Z,99.90
2023-03-25T08:49:31.511Z,99.90
2023-03-25T08:52:00.257Z,98.90
2023-03-25T08:54:27.554Z,99.10
2023-03-25T08:56:54.967Z,97.50
2023-03-25T08:59:21.916Z,98.20
2023-03-25T09:01:48.736Z,98.30
2023-03-25T09:04:16.207Z,97.50
2023-03-25T09:06:48.229Z,96.00
2023-03-25T09:09:31.212Z,95.10
2023-03-25T09:11:57.981Z,94.20
2023-03-25T09:14:24.988Z,94.20
2023-03-25T09:16:51.805Z,92.10
2023-03-25T09:19:18.557Z,91.60
2023-03-25T09:21:45.318Z,90.90
2023-03-25T09:24:12.873Z,82.60
2023-03-25T09:26:40.764Z,78.00
2023-03-25T09:29:07.725Z,76.20
2023-03-25T09:31:35.222Z,72.40
2023-03-25T09:34:02.360Z,74.10
2023-03-25T09:36:29.242Z,73.60
2023-03-25T09:38:56.103Z,70.90
2023-03-25T09:41:56.908Z,68.30
2023-03-25T09:44:39.005Z,71.70
2023-03-25T09:47:09.475Z,71.60
2023-03-25T09:49:53.634Z,74.70
2023-03-25T09:52:27.308Z,72.80
2023-03-25T09:55:02.103Z,71.10
2023-03-25T09:57:33.389Z,73.10
2023-03-25T10:00:04.276Z,72.10
2023-03-25T10:02:52.382Z,75.60
2023-03-25T10:06:09.102Z,75.90
2023-03-25T10:09:06.085Z,73.90
2023-03-25T10:11:51.285Z,74.50
2023-03-25T10:14:28.856Z,75.20
2023-03-25T10:17:19.858Z,76.90
2023-03-25T10:20:14.044Z,78.80
2023-03-25T10:23:11.713Z,78.20
2023-03-25T10:25:45.810Z,82.70
2023-03-25T10:28:20.736Z,81.30
2023-03-25T10:30:52.376Z,79.90
2023-03-25T10:33:28.906Z,82.10
2023-03-25T10:35:59.592Z,83.60
2023-03-25T10:38:26.371Z,82.30
2023-03-25T10:41:18.911Z,85.90
2023-03-25T10:43:45.937Z,85.20
2023-03-25T10:54:04.687Z,85.30
2023-03-25T10:56:35.290Z,88.20
2023-03-25T10:59:13.207Z,83.00
2023-03-25T11:09:38.954Z,84.50
2023-03-25T11:12:06.626Z,83.70
2023-03-25T11:17:13.866Z,84.20
2023-03-25T11:19:57.260Z,83.70
2023-03-25T11:22:34.841Z,85.70
2023-03-25T11:27:46.004Z,84.70
2023-03-25T11:33:04.842Z,82.70
2023-03-25T11:58:22.411Z,82.00
2023-03-25T12:00:51.084Z,80.90
2023-03-25T12:03:20.697Z,77.90
2023-03-25T12:06:21.921Z,69.40
2023-03-25T12:09:00.643Z,70.50
2023-03-25T12:11:32.400Z,65.30
2023-03-25T12:14:17.641Z,71.00
2023-03-25T12:16:47.237Z,64.50
2023-03-25T12:19:17.623Z,60.60
2023-03-25T12:21:55.052Z,60.60
2023-03-25T12:24:36.978Z,59.20
2023-03-25T12:27:46.285Z,61.60
2023-03-25T12:30:31.450Z,66.90
2023-03-25T12:33:23.385Z,68.50
2023-03-25T12:36:15.863Z,76.80
2023-03-25T12:39:29.334Z,80.20
2023-03-25T12:42:02.710Z,79.80
2023-03-25T12:44:43.959Z,79.10
2023-03-25T12:47:22.365Z,82.00
2023-03-25T12:50:08.267Z,86.30
2023-03-25T12:52:43.930Z,83.80
2023-03-25T12:55:52.133Z,81.60
2023-03-25T12:58:43.893Z,72.50
2023-03-25T13:01:40.213Z,74.40
2023-03-25T13:04:19.128Z,63.20
2023-03-25T13:06:52.099Z,67.20
2023-03-25T13:09:30.638Z,68.90
2023-03-25T13:19:41.183Z,68.10
2023-03-25T13:22:19.746Z,70.80
2023-03-25T13:24:52.011Z,69.30
2023-03-25T13:27:19.334Z,73.40
2023-03-25T13:29:56.705Z,67.70
2023-03-25T13:32:48.155Z,69.20
2023-03-25T13:35:24.851Z,70.60
2023-03-25T13:38:01.149Z,72.00
2023-03-25T13:40:31.672Z,70.40
2023-03-25T13:43:26.755Z,71.70
2023-03-25T13:46:36.375Z,68.30
2023-03-25T13:49:28.997Z,70.10
2023-03-25T13:51:57.920Z,69.90
2023-03-25T13:54:34.644Z,67.40
2023-03-25T13:57:01.647Z,69.40
2023-03-25T14:00:00.921Z,67.40
2023-03-25T14:02:36.823Z,73.20
2023-03-25T14:05:28.164Z,78.70
2023-03-25T14:08:23.244Z,80.20
2023-03-25T14:11:22.233Z,79.30
2023-03-25T14:14:03.538Z,74.50
2023-03-25T14:16:36.397Z,71.10
2023-03-25T14:19:07.996Z,70.40
2023-03-25T14:21:38.484Z,68.60
2023-03-25T14:24:20.676Z,69.40
2023-03-25T14:26:52.056Z,69.60
2023-03-25T14:29:36.893Z,70.40
2023-03-25T14:32:16.308Z,69.90
2023-03-25T14:34:44.730Z,69.30
2023-03-25T14:37:17.182Z,71.10
2023-03-25T14:39:45.404Z,71.00
2023-03-25T14:42:30.476Z,71.30
2023-03-25T14:45:42.803Z,74.90
2023-03-25T14:48:31.676Z,76.50
2023-03-25T14:51:23.107Z,78.20
2023-03-25T14:54:03.472Z,85.20
2023-03-25T14:56:41.749Z,93.40
2023-03-25T14:59:14.631Z,93.40
2023-03-25T15:01:44.225Z,93.80
2023-03-25T15:04:14.464Z,95.30
2023-03-25T15:06:42.577Z,95.80
2023-03-25T15:09:13.061Z,97.00
2023-03-25T15:11:51.412Z,97.30
2023-03-25T15:14:23.951Z,97.90
2023-03-25T15:16:50.982Z,98.30
2023-03-25T15:19:19.372Z,98.80
2023-03-25T15:21:58.510Z,99.90
2023-03-25T15:24:28.324Z,99.60
2023-03-25T15:27:02.015Z,98.50
2023-03-25T15:29:53.477Z,98.80
2023-03-25T15:32:57.815Z,97.30
2023-03-25T15:35:36.240Z,97.50
2023-03-25T15:38:21.018Z,97.80
2023-03-25T15:41:00.533Z,96.60
2023-03-25T15:44:00.660Z,95.60
2023-03-25T15:46:45.509Z,96.00
2023-03-25T15:49:21.551Z,96.00
2023-03-25T15:52:10.917Z,96.50
2023-03-25T15:54:42.226Z,96.40
2023-03-25T15:57:26.951Z,94.30
2023-03-25T16:00:13.648Z,95.20
2023-03-25T16:02:56.305Z,95.90
2023-03-25T16:05:23.431Z,96.30
2023-03-25T16:07:50.299Z,96.10
2023-03-25T16:10:20.739Z,96.30
2023-03-25T16:12:49.810Z,95.30
2023-03-25T16:15:19.424Z,95.60
2023-03-25T16:17:47.201Z,95.90
2023-03-25T16:20:18.389Z,94.60
2023-03-25T16:22:56.440Z,94.60
2023-03-25T16:25:42.212Z,92.40
2023-03-25T16:28:17.802Z,92.20
2023-03-25T16:30:48.826Z,90.00
2023-03-25T16:33:24.874Z,91.00
2023-03-25T16:36:05.293Z,90.20
2023-03-25T16:38:33.145Z,89.00
2023-03-25T16:41:07.496Z,90.60
2023-03-25T16:43:34.524Z,89.70
2023-03-25T16:46:04.344Z,87.20
2023-03-25T16:48:31.451Z,90.00
2023-03-25T16:51:02.360Z,84.80
2023-03-25T16:53:34.209Z,86.00
2023-03-25T16:56:10.095Z,84.80
2023-03-25T16:58:57.803Z,86.40
2023-03-25T17:01:25.636Z,86.20
2023-03-25T17:03:53.739Z,87.00
2023-03-25T17:06:40.108Z,86.80
2023-03-25T17:09:16.931Z,89.70
2023-03-25T17:11:45.902Z,87.80
2023-03-25T17:14:28.486Z,90.00
2023-03-25T17:16:55.825Z,90.00
2023-03-25T17:19:26.472Z,89.80
2023-03-25T17:22:20.365Z,90.50
2023-03-25T17:24:58.997Z,90.30
2023-03-25T17:27:38.756Z,90.80
2023-03-25T17:30:42.833Z,91.50
2023-03-25T17:33:18.189Z,90.60
2023-03-25T17:35:52.410Z,90.30
2023-03-25T17:38:34.160Z,90.40
2023-03-25T17:41:03.970Z,90.80
2023-03-25T17:43:33.879Z,91.10
2023-03-25T17:46:01.601Z,91.00
2023-03-25T17:48:29.238Z,91.00
2023-03-25T17:50:57.666Z,91.00
2023-03-25T17:53:25.444Z,91.30
2023-03-25T17:55:53.051Z,90.90
2023-03-25T17:58:21.737Z,91.20
2023-03-25T18:00:50.198Z,90.80
2023-03-25T18:03:19.947Z,90.80
2023-03-25T18:05:50.963Z,91.30
2023-03-25T18:08:17.854Z,90.60
2023-03-25T18:10:45.511Z,90.60
2023-03-25T18:13:12.539Z,91.70
2023-03-25T18:15:40.603Z,91.00
2023-03-25T18:18:18.127Z,91.10
2023-03-25T18:20:46.086Z,90.50
2023-03-25T18:23:16.298Z,90.80
2023-03-25T18:25:44.876Z,90.40
2023-03-25T18:28:13.420Z,91.10
2023-03-25T18:30:45.263Z,91.00
2023-03-25T18:33:13.207Z,91.60
2023-03-25T18:35:40.171Z,90.90
2023-03-25T18:38:07.270Z,90.90
2023-03-25T18:40:36.109Z,90.60
2023-03-25T18:43:04.101Z,90.70
2023-03-25T18:45:31.395Z,90.30
2023-03-25T18:47:58.356Z,90.40
2023-03-25T18:50:31.481Z,90.40
2023-03-25T18:52:59.162Z,90.20
2023-03-25T18:55:28.508Z,90.20
2023-03-25T18:57:55.952Z,87.80
2023-03-25T19:00:26.018Z,87.40
2023-03-25T19:02:53.883Z,89.70
2023-03-25T19:05:22.447Z,89.50
2023-03-25T19:07:50.575Z,89.90
2023-03-25T19:10:21.239Z,90.70
2023-03-25T19:12:48.614Z,90.50
2023-03-25T19:15:17.757Z,90.10
2023-03-25T19:17:46.805Z,90.20
2023-03-25T19:20:18.264Z,91.10
2023-03-25T19:22:46.036Z,91.10
2023-03-25T19:25:14.061Z,90.70
2023-03-25T19:27:42.765Z,91.20
2023-03-25T19:30:13.154Z,89.90
2023-03-25T19:32:40.136Z,90.50
2023-03-25T19:35:08.041Z,91.10
2023-03-25T19:37:37.503Z,90.50
2023-03-25T19:40:09.558Z,89.50
2023-03-25T19:42:37.630Z,90.10
2023-03-25T19:45:06.161Z,90.10
2023-03-25T19:47:33.071Z,90.10
2023-03-25T19:50:00.367Z,88.30
2023-03-25T19:52:27.589Z,89.90
2023-03-25T19:54:54.581Z,87.70
2023-03-25T19:57:21.639Z,87.20
2023-03-25T19:59:48.465Z,88.70
2023-03-25T20:02:15.725Z,89.50
2023-03-25T20:04:42.516Z,89.40
2023-03-25T20:07:09.452Z,90.70
2023-03-25T20:09:36.578Z,91.20
2023-03-25T20:12:03.512Z,91.90
2023-03-25T20:14:30.651Z,92.20
2023-03-25T20:16:57.613Z,92.10
2023-03-25T20:19:24.957Z,92.60
2023-03-25T20:21:51.935Z,92.60
2023-03-25T20:24:18.882Z,93.20
2023-03-25T20:26:45.945Z,92.90
2023-03-25T20:29:12.891Z,92.30
2023-03-25T20:31:39.906Z,92.20
2023-03-25T20:34:06.905Z,92.50
2023-03-25T20:36:33.766Z,93.30
2023-03-25T20:39:05.369Z,94.10
2023-03-25T20:41:32.929Z,93.60
2023-03-25T20:43:59.741Z,94.20
2023-03-25T20:46:31.212Z,94.80
2023-03-25T20:48:58.907Z,95.20
2023-03-25T20:51:25.817Z,95.10
2023-03-25T20:53:53.316Z,95.40
2023-03-25T20:56:20.233Z,95.10
2023-03-25T20:58:49.169Z,94.70
2023-03-25T21:01:16.234Z,95.00
2023-03-25T21:03:44.186Z,94.80
2023-03-25T21:06:23.039Z,94.80
2023-03-25T21:08:51.519Z,94.90
2023-03-25T21:11:18.785Z,95.00
2023-03-25T21:13:47.075Z,95.00
2023-03-25T21:16:17.541Z,95.00
2023-03-25T21:18:44.776Z,94.70
2023-03-25T21:21:11.745Z,94.20
2023-03-25T21:23:42.938Z,94.40
2023-03-25T21:26:09.948Z,94.00
2023-03-25T21:28:39.091Z,94.30
2023-03-25T21:31:09.460Z,94.20
2023-03-25T21:33:38.542Z,94.30
2023-03-25T21:36:08.172Z,94.50
2023-03-25T21:38:36.506Z,94.30
2023-03-25T21:41:06.434Z,94.30
2023-03-25T21:43:35.356Z,93.90
2023-03-25T21:46:05.357Z,93.40
2023-03-25T21:48:34.023Z,93.30
2023-03-25T21:51:01.564Z,93.40
2023-03-25T21:53:32.634Z,93.70
2023-03-25T21:56:04.257Z,93.20
2023-03-25T21:58:33.094Z,93.30
2023-03-25T22:01:01.968Z,93.10
2023-03-25T22:03:30.263Z,93.40
2023-03-25T22:06:07.336Z,92.60
2023-03-25T22:08:34.192Z,93.30
2023-03-25T22:11:22.336Z,93.50
2023-03-25T22:13:50.442Z,93.30
2023-03-25T22:16:19.497Z,93.00
2023-03-25T22:18:47.203Z,93.10
2023-03-25T22:21:17.388Z,93.90
2023-03-25T22:23:46.322Z,92.90
2023-03-25T22:26:14.875Z,92.20
2023-03-25T22:28:42.517Z,92.10
2023-03-25T22:31:15.847Z,92.40
2023-03-25T22:33:43.624Z,92.10
2023-03-25T22:36:13.337Z,91.60
2023-03-25T22:38:45.886Z,91.60
2023-03-25T22:41:15.594Z,91.60
2023-03-25T22:43:44.626Z,92.00
2023-03-25T22:46:12.029Z,91.40
2023-03-25T22:48:41.620Z,91.30
2023-03-25T22:51:11.258Z,91.30
2023-03-25T22:53:39.163Z,90.80
2023-03-25T22:56:07.429Z,90.30
2023-03-25T22:58:34.446Z,90.00
2023-03-25T23:01:03.991Z,90.20
2023-03-25T23:03:32.910Z,90.30
2023-03-25T23:06:06.653Z,90.00
2023-03-25T23:08:37.098Z,89.00
2023-03-25T23:11:30.991Z,89.60
2023-03-25T23:14:06.173Z,89.20
2023-03-25T23:16:36.834Z,89.20
2023-03-25T23:19:06.234Z,89.20
2023-03-25T23:21:33.878Z,88.00
2023-03-25T23:24:03.339Z,88.00
2023-03-25T23:26:38.952Z,88.00
2023-03-25T23:29:08.935Z,87.50
2023-03-25T23:31:37.634Z,87.30
2023-03-25T23:34:07.274Z,88.30
2023-03-25T23:36:36.626Z,86.10
2023-03-25T23:39:07.393Z,86.20
2023-03-25T23:41:35.332Z,86.60
2023-03-25T23:44:02.741Z,88.80
2023-03-25T23:46:30.589Z,87.20
2023-03-25T23:49:02.441Z,87.60
2023-03-25T23:51:38.398Z,88.00
2023-03-25T23:54:07.748Z,87.60
2023-03-25T23:56:35.358Z,87.20
2023-03-25T23:59:03.406Z,88.40
